Terminal Aerodrome Forecast
Issued by NWS Jacksonville, FL

Home | Current Version | Previous Version | Text Only | Print | Product List | Glossary On
Versions: 1 2 3 4 5 6 7 8 9 10 11 12 13 14 15 16 17 18 19 20
158
FTUS42 KJAX 272343 CCA
TAFSSI
TAF COR
KSSI 272343Z 2800/2824 10007KT P6SM VCTS SCT025CB BKN040 BKN070
      TEMPO 2800/2802 BKN025CB
     FM280200 08006KT P6SM VCSH OVC100
     FM280700 VRB02KT 2SM BR SCT040
     FM280900 VRB02KT 1SM BR SCT001 BKN002
     FM281500 15008KT P6SM FEW040=

USA.gov is the U.S. government's official web portal to all federal, state and local government web resources and services.